Terminal Aerodrome Forecast
Issued by NWS

Home | Current Version | Previous Version | Graphics & Text | Print | Product List | Glossary On
Versions: 1 2 3 4 5 6 7 8 9 10 11 12 13 14 15 16 17 18 19 20
000
FTUS43 KBIS 260124 AAA
TAFJMS
TAF AMD
KJMS 260124Z 2601/2624 02010G18KT P6SM SCT050
     FM260200 01004KT P6SM FEW200
     FM262100 28005KT P6SM SKC=

USA.gov is the U.S. government's official web portal to all federal, state and local government web resources and services.